sensor_id;sensor_type;location;lat;lon;timestamp;temperature;humidity
56298;DHT22;42208;6.376;-10.782;2023-07-29T00:01:45;25.20;99.90
56298;DHT22;42208;6.376;-10.782;2023-07-29T00:04:14;25.20;99.90
56298;DHT22;42208;6.376;-10.782;2023-07-29T00:06:44;25.20;99.90
56298;DHT22;42208;6.376;-10.782;2023-07-29T00:09:12;25.20;99.90
56298;DHT22;42208;6.376;-10.782;2023-07-29T00:11:41;25.20;99.90
56298;DHT22;42208;6.376;-10.782;2023-07-29T00:14:09;25.20;99.90
56298;DHT22;42208;6.376;-10.782;2023-07-29T00:16:41;25.20;99.90
56298;DHT22;42208;6.376;-10.782;2023-07-29T00:19:10;25.20;99.90
56298;DHT22;42208;6.376;-10.782;2023-07-29T00:21:38;25.20;99.90
56298;DHT22;42208;6.376;-10.782;2023-07-29T00:24:07;25.20;99.90
56298;DHT22;42208;6.376;-10.782;2023-07-29T00:26:35;25.20;99.90
56298;DHT22;42208;6.376;-10.782;2023-07-29T00:29:05;25.20;99.90
56298;DHT22;42208;6.376;-10.782;2023-07-29T00:31:34;25.20;99.90
56298;DHT22;42208;6.376;-10.782;2023-07-29T00:34:09;25.20;99.90
56298;DHT22;42208;6.376;-10.782;2023-07-29T00:36:39;25.20;99.90
56298;DHT22;42208;6.376;-10.782;2023-07-29T00:39:08;25.20;99.90
56298;DHT22;42208;6.376;-10.782;2023-07-29T00:41:36;25.20;99.90
56298;DHT22;42208;6.376;-10.782;2023-07-29T00:44:05;25.20;99.90
56298;DHT22;42208;6.376;-10.782;2023-07-29T00:46:35;25.30;99.90
56298;DHT22;42208;6.376;-10.782;2023-07-29T00:49:04;25.20;99.90
56298;DHT22;42208;6.376;-10.782;2023-07-29T00:51:34;25.30;99.90
56298;DHT22;42208;6.376;-10.782;2023-07-29T00:54:03;25.30;99.90
56298;DHT22;42208;6.376;-10.782;2023-07-29T00:56:35;25.30;99.90
56298;DHT22;42208;6.376;-10.782;2023-07-29T00:59:04;25.30;99.90
56298;DHT22;42208;6.376;-10.782;2023-07-29T01:01:33;25.20;99.90
56298;DHT22;42208;6.376;-10.782;2023-07-29T01:04:03;25.20;99.90
56298;DHT22;42208;6.376;-10.782;2023-07-29T01:06:58;25.20;99.90
56298;DHT22;42208;6.376;-10.782;2023-07-29T01:09:39;25.20;99.90
56298;DHT22;42208;6.376;-10.782;2023-07-29T01:12:21;25.20;99.90
56298;DHT22;42208;6.376;-10.782;2023-07-29T01:15:07;25.20;99.90
56298;DHT22;42208;6.376;-10.782;2023-07-29T01:17:43;25.20;99.90
56298;DHT22;42208;6.376;-10.782;2023-07-29T01:20:15;25.20;99.90
56298;DHT22;42208;6.376;-10.782;2023-07-29T01:22:44;25.20;99.90
56298;DHT22;42208;6.376;-10.782;2023-07-29T01:25:13;25.20;99.90
56298;DHT22;42208;6.376;-10.782;2023-07-29T01:27:44;25.30;99.90
56298;DHT22;42208;6.376;-10.782;2023-07-29T01:30:13;25.20;99.90
56298;DHT22;42208;6.376;-10.782;2023-07-29T01:32:52;25.20;99.90
56298;DHT22;42208;6.376;-10.782;2023-07-29T01:38:02;25.30;99.90
56298;DHT22;42208;6.376;-10.782;2023-07-29T01:40:31;25.20;99.90
56298;DHT22;42208;6.376;-10.782;2023-07-29T01:43:01;25.20;99.90
56298;DHT22;42208;6.376;-10.782;2023-07-29T01:45:30;25.20;99.90
56298;DHT22;42208;6.376;-10.782;2023-07-29T01:47:58;25.20;99.90
56298;DHT22;42208;6.376;-10.782;2023-07-29T01:50:26;25.30;99.90
56298;DHT22;42208;6.376;-10.782;2023-07-29T01:52:55;25.30;99.90
56298;DHT22;42208;6.376;-10.782;2023-07-29T01:55:24;25.30;99.90
56298;DHT22;42208;6.376;-10.782;2023-07-29T01:57:53;25.30;99.90
56298;DHT22;42208;6.376;-10.782;2023-07-29T02:00:23;25.30;99.90
56298;DHT22;42208;6.376;-10.782;2023-07-29T02:02:52;25.30;99.90
56298;DHT22;42208;6.376;-10.782;2023-07-29T02:05:20;25.30;99.90
56298;DHT22;42208;6.376;-10.782;2023-07-29T02:07:49;25.30;99.90
56298;DHT22;42208;6.376;-10.782;2023-07-29T02:10:18;25.30;99.90
56298;DHT22;42208;6.376;-10.782;2023-07-29T02:12:46;25.30;99.90
56298;DHT22;42208;6.376;-10.782;2023-07-29T02:15:15;25.30;99.90
56298;DHT22;42208;6.376;-10.782;2023-07-29T02:17:43;25.30;99.90
56298;DHT22;42208;6.376;-10.782;2023-07-29T02:20:12;25.30;99.90
56298;DHT22;42208;6.376;-10.782;2023-07-29T02:22:40;25.30;99.90
56298;DHT22;42208;6.376;-10.782;2023-07-29T02:25:09;25.30;99.90
56298;DHT22;42208;6.376;-10.782;2023-07-29T02:27:38;25.30;99.90
56298;DHT22;42208;6.376;-10.782;2023-07-29T02:30:07;25.30;99.90
56298;DHT22;42208;6.376;-10.782;2023-07-29T02:32:36;25.30;99.90
56298;DHT22;42208;6.376;-10.782;2023-07-29T02:35:05;25.30;99.90
56298;DHT22;42208;6.376;-10.782;2023-07-29T02:37:33;25.30;99.90
56298;DHT22;42208;6.376;-10.782;2023-07-29T02:40:02;25.30;99.90
56298;DHT22;42208;6.376;-10.782;2023-07-29T02:42:30;25.20;99.90
56298;DHT22;42208;6.376;-10.782;2023-07-29T02:44:59;25.20;99.90
56298;DHT22;42208;6.376;-10.782;2023-07-29T02:47:27;25.10;99.90
56298;DHT22;42208;6.376;-10.782;2023-07-29T02:49:56;25.10;99.90
56298;DHT22;42208;6.376;-10.782;2023-07-29T02:52:25;25.10;99.90
56298;DHT22;42208;6.376;-10.782;2023-07-29T02:54:53;25.10;99.90
56298;DHT22;42208;6.376;-10.782;2023-07-29T02:57:21;25.10;99.90
56298;DHT22;42208;6.376;-10.782;2023-07-29T02:59:50;25.10;99.90
56298;DHT22;42208;6.376;-10.782;2023-07-29T03:02:18;25.10;99.90
56298;DHT22;42208;6.376;-10.782;2023-07-29T03:04:48;25.10;99.90
56298;DHT22;42208;6.376;-10.782;2023-07-29T03:07:16;25.10;99.90
56298;DHT22;42208;6.376;-10.782;2023-07-29T03:09:47;25.10;99.90
56298;DHT22;42208;6.376;-10.782;2023-07-29T03:12:16;25.10;99.90
56298;DHT22;42208;6.376;-10.782;2023-07-29T03:14:47;25.10;99.90
56298;DHT22;42208;6.376;-10.782;2023-07-29T03:17:16;25.10;99.90
56298;DHT22;42208;6.376;-10.782;2023-07-29T03:19:44;25.10;99.90
56298;DHT22;42208;6.376;-10.782;2023-07-29T03:22:13;25.10;99.90
56298;DHT22;42208;6.376;-10.782;2023-07-29T03:24:41;25.00;99.90
56298;DHT22;42208;6.376;-10.782;2023-07-29T03:27:10;25.10;99.90
56298;DHT22;42208;6.376;-10.782;2023-07-29T03:29:38;25.10;99.90
56298;DHT22;42208;6.376;-10.782;2023-07-29T03:32:07;25.10;99.90
56298;DHT22;42208;6.376;-10.782;2023-07-29T03:34:36;25.10;99.90
56298;DHT22;42208;6.376;-10.782;2023-07-29T03:37:04;25.10;99.90
56298;DHT22;42208;6.376;-10.782;2023-07-29T03:39:33;25.10;99.90
56298;DHT22;42208;6.376;-10.782;2023-07-29T03:42:02;25.10;99.90
56298;DHT22;42208;6.376;-10.782;2023-07-29T03:44:30;25.10;99.90
56298;DHT22;42208;6.376;-10.782;2023-07-29T03:46:59;25.10;99.90
56298;DHT22;42208;6.376;-10.782;2023-07-29T03:49:27;25.10;99.90
56298;DHT22;42208;6.376;-10.782;2023-07-29T03:51:55;25.10;99.90
56298;DHT22;42208;6.376;-10.782;2023-07-29T03:54:24;25.10;99.90
56298;DHT22;42208;6.376;-10.782;2023-07-29T03:56:52;25.10;99.90
56298;DHT22;42208;6.376;-10.782;2023-07-29T03:59:21;25.10;99.90
56298;DHT22;42208;6.376;-10.782;2023-07-29T04:01:50;25.10;99.90
56298;DHT22;42208;6.376;-10.782;2023-07-29T04:04:21;25.10;99.90
56298;DHT22;42208;6.376;-10.782;2023-07-29T04:06:50;25.10;99.90
56298;DHT22;42208;6.376;-10.782;2023-07-29T04:09:18;25.10;99.90
56298;DHT22;42208;6.376;-10.782;2023-07-29T04:11:47;25.10;99.90
56298;DHT22;42208;6.376;-10.782;2023-07-29T04:14:17;25.10;99.90
56298;DHT22;42208;6.376;-10.782;2023-07-29T04:16:46;25.10;99.90
56298;DHT22;42208;6.376;-10.782;2023-07-29T04:19:16;25.10;99.90
56298;DHT22;42208;6.376;-10.782;2023-07-29T04:21:45;25.10;99.90
56298;DHT22;42208;6.376;-10.782;2023-07-29T04:24:13;25.10;99.90
56298;DHT22;42208;6.376;-10.782;2023-07-29T04:26:42;25.10;99.90
56298;DHT22;42208;6.376;-10.782;2023-07-29T04:29:11;25.10;99.90
56298;DHT22;42208;6.376;-10.782;2023-07-29T04:31:39;25.20;99.90
56298;DHT22;42208;6.376;-10.782;2023-07-29T04:34:08;25.10;99.90
56298;DHT22;42208;6.376;-10.782;2023-07-29T04:36:38;25.20;99.90
56298;DHT22;42208;6.376;-10.782;2023-07-29T04:39:07;25.20;99.90
56298;DHT22;42208;6.376;-10.782;2023-07-29T04:41:35;25.20;99.90
56298;DHT22;42208;6.376;-10.782;2023-07-29T04:44:04;25.10;99.90
56298;DHT22;42208;6.376;-10.782;2023-07-29T04:46:33;25.10;99.90
56298;DHT22;42208;6.376;-10.782;2023-07-29T04:49:02;25.10;99.90
56298;DHT22;42208;6.376;-10.782;2023-07-29T04:51:31;25.10;99.90
56298;DHT22;42208;6.376;-10.782;2023-07-29T04:54:00;25.10;99.90
56298;DHT22;42208;6.376;-10.782;2023-07-29T04:56:28;25.10;99.90
56298;DHT22;42208;6.376;-10.782;2023-07-29T04:58:57;25.10;99.90
56298;DHT22;42208;6.376;-10.782;2023-07-29T05:01:26;25.10;99.90
56298;DHT22;42208;6.376;-10.782;2023-07-29T05:03:54;25.10;99.90
56298;DHT22;42208;6.376;-10.782;2023-07-29T05:06:23;25.10;99.90
56298;DHT22;42208;6.376;-10.782;2023-07-29T05:08:54;25.10;99.90
56298;DHT22;42208;6.376;-10.782;2023-07-29T05:11:23;25.10;99.90
56298;DHT22;42208;6.376;-10.782;2023-07-29T05:13:51;25.10;99.90
56298;DHT22;42208;6.376;-10.782;2023-07-29T05:16:20;25.10;99.90
56298;DHT22;42208;6.376;-10.782;2023-07-29T05:18:48;25.10;99.90
56298;DHT22;42208;6.376;-10.782;2023-07-29T05:21:17;25.10;99.90
56298;DHT22;42208;6.376;-10.782;2023-07-29T05:23:45;25.10;99.90
56298;DHT22;42208;6.376;-10.782;2023-07-29T05:26:14;25.10;99.90
56298;DHT22;42208;6.376;-10.782;2023-07-29T05:28:42;25.10;99.90
56298;DHT22;42208;6.376;-10.782;2023-07-29T05:31:11;25.10;99.90
56298;DHT22;42208;6.376;-10.782;2023-07-29T05:33:39;25.10;99.90
56298;DHT22;42208;6.376;-10.782;2023-07-29T05:36:08;25.10;99.90
56298;DHT22;42208;6.376;-10.782;2023-07-29T05:38:37;25.10;99.90
56298;DHT22;42208;6.376;-10.782;2023-07-29T05:41:05;25.10;99.90
56298;DHT22;42208;6.376;-10.782;2023-07-29T05:43:34;25.10;99.90
56298;DHT22;42208;6.376;-10.782;2023-07-29T05:46:02;25.10;99.90
56298;DHT22;42208;6.376;-10.782;2023-07-29T05:48:31;25.10;99.90
56298;DHT22;42208;6.376;-10.782;2023-07-29T05:50:59;25.10;99.90
56298;DHT22;42208;6.376;-10.782;2023-07-29T05:53:28;25.10;99.90
56298;DHT22;42208;6.376;-10.782;2023-07-29T05:55:57;25.10;99.90
56298;DHT22;42208;6.376;-10.782;2023-07-29T05:58:25;25.10;99.90
56298;DHT22;42208;6.376;-10.782;2023-07-29T06:00:54;25.10;99.90
56298;DHT22;42208;6.376;-10.782;2023-07-29T06:03:22;25.10;99.90
56298;DHT22;42208;6.376;-10.782;2023-07-29T06:05:52;25.10;99.90
56298;DHT22;42208;6.376;-10.782;2023-07-29T06:08:22;25.10;99.90
56298;DHT22;42208;6.376;-10.782;2023-07-29T06:10:51;25.10;99.90
56298;DHT22;42208;6.376;-10.782;2023-07-29T06:13:19;25.10;99.90
56298;DHT22;42208;6.376;-10.782;2023-07-29T06:15:49;25.10;99.90
56298;DHT22;42208;6.376;-10.782;2023-07-29T06:18:19;25.10;99.90
56298;DHT22;42208;6.376;-10.782;2023-07-29T06:20:49;25.10;99.90
56298;DHT22;42208;6.376;-10.782;2023-07-29T06:23:17;25.10;99.90
56298;DHT22;42208;6.376;-10.782;2023-07-29T06:25:46;25.10;99.90
56298;DHT22;42208;6.376;-10.782;2023-07-29T06:28:14;25.10;99.90
56298;DHT22;42208;6.376;-10.782;2023-07-29T06:30:43;25.10;99.90
56298;DHT22;42208;6.376;-10.782;2023-07-29T06:33:12;25.00;99.90
56298;DHT22;42208;6.376;-10.782;2023-07-29T06:35:41;25.00;99.90
56298;DHT22;42208;6.376;-10.782;2023-07-29T06:38:10;25.00;99.90
56298;DHT22;42208;6.376;-10.782;2023-07-29T06:40:38;25.00;99.90
56298;DHT22;42208;6.376;-10.782;2023-07-29T06:43:07;25.00;99.90
56298;DHT22;42208;6.376;-10.782;2023-07-29T06:45:36;25.00;99.90
56298;DHT22;42208;6.376;-10.782;2023-07-29T06:48:04;25.00;99.90
56298;DHT22;42208;6.376;-10.782;2023-07-29T06:50:33;25.00;99.90
56298;DHT22;42208;6.376;-10.782;2023-07-29T06:53:01;25.00;99.90
56298;DHT22;42208;6.376;-10.782;2023-07-29T06:55:30;25.00;99.90
56298;DHT22;42208;6.376;-10.782;2023-07-29T06:57:58;25.00;99.90
56298;DHT22;42208;6.376;-10.782;2023-07-29T07:00:27;25.00;99.90
56298;DHT22;42208;6.376;-10.782;2023-07-29T07:02:55;25.00;99.90
56298;DHT22;42208;6.376;-10.782;2023-07-29T07:05:24;25.00;99.90
56298;DHT22;42208;6.376;-10.782;2023-07-29T07:07:52;25.00;99.90
56298;DHT22;42208;6.376;-10.782;2023-07-29T07:10:21;25.10;99.90
56298;DHT22;42208;6.376;-10.782;2023-07-29T07:12:50;25.00;99.90
56298;DHT22;42208;6.376;-10.782;2023-07-29T07:15:21;25.10;99.90
56298;DHT22;42208;6.376;-10.782;2023-07-29T07:17:50;25.10;99.90
56298;DHT22;42208;6.376;-10.782;2023-07-29T07:20:19;25.10;99.90
56298;DHT22;42208;6.376;-10.782;2023-07-29T07:22:48;25.10;99.90
56298;DHT22;42208;6.376;-10.782;2023-07-29T07:25:20;25.10;99.90
56298;DHT22;42208;6.376;-10.782;2023-07-29T07:27:48;25.20;99.90
56298;DHT22;42208;6.376;-10.782;2023-07-29T07:30:23;25.20;99.90
56298;DHT22;42208;6.376;-10.782;2023-07-29T07:32:51;25.20;99.90
56298;DHT22;42208;6.376;-10.782;2023-07-29T07:35:20;25.20;99.90
56298;DHT22;42208;6.376;-10.782;2023-07-29T07:37:48;25.20;99.90
56298;DHT22;42208;6.376;-10.782;2023-07-29T07:40:17;25.20;99.90
56298;DHT22;42208;6.376;-10.782;2023-07-29T07:42:45;25.30;99.90
56298;DHT22;42208;6.376;-10.782;2023-07-29T07:45:14;25.30;99.90
56298;DHT22;42208;6.376;-10.782;2023-07-29T07:47:42;25.30;99.90
56298;DHT22;42208;6.376;-10.782;2023-07-29T07:50:11;25.30;99.90
56298;DHT22;42208;6.376;-10.782;2023-07-29T07:52:39;25.40;99.90
56298;DHT22;42208;6.376;-10.782;2023-07-29T07:55:08;25.40;99.90
56298;DHT22;42208;6.376;-10.782;2023-07-29T07:57:37;25.40;99.90
56298;DHT22;42208;6.376;-10.782;2023-07-29T08:00:05;25.40;99.90
56298;DHT22;42208;6.376;-10.782;2023-07-29T08:02:40;25.40;99.90
56298;DHT22;42208;6.376;-10.782;2023-07-29T08:05:08;25.50;99.90
56298;DHT22;42208;6.376;-10.782;2023-07-29T08:07:37;25.50;99.90
56298;DHT22;42208;6.376;-10.782;2023-07-29T08:10:06;25.50;99.90
56298;DHT22;42208;6.376;-10.782;2023-07-29T08:12:35;25.50;99.90
56298;DHT22;42208;6.376;-10.782;2023-07-29T08:15:04;25.60;99.90
56298;DHT22;42208;6.376;-10.782;2023-07-29T08:17:32;25.60;99.90
56298;DHT22;42208;6.376;-10.782;2023-07-29T08:20:00;25.60;99.90
56298;DHT22;42208;6.376;-10.782;2023-07-29T08:22:29;25.60;99.90
56298;DHT22;42208;6.376;-10.782;2023-07-29T08:24:58;25.60;99.90
56298;DHT22;42208;6.376;-10.782;2023-07-29T08:27:26;25.60;99.90
56298;DHT22;42208;6.376;-10.782;2023-07-29T08:29:55;25.60;99.90
56298;DHT22;42208;6.376;-10.782;2023-07-29T08:32:24;25.60;99.90
56298;DHT22;42208;6.376;-10.782;2023-07-29T08:34:53;25.60;99.90
56298;DHT22;42208;6.376;-10.782;2023-07-29T08:37:22;25.70;99.90
56298;DHT22;42208;6.376;-10.782;2023-07-29T08:39:50;25.70;99.90
56298;DHT22;42208;6.376;-10.782;2023-07-29T08:42:19;25.70;99.90
56298;DHT22;42208;6.376;-10.782;2023-07-29T08:44:49;25.70;99.90
56298;DHT22;42208;6.376;-10.782;2023-07-29T08:47:19;25.70;99.90
56298;DHT22;42208;6.376;-10.782;2023-07-29T08:49:48;25.70;99.90
56298;DHT22;42208;6.376;-10.782;2023-07-29T08:52:19;25.70;99.90
56298;DHT22;42208;6.376;-10.782;2023-07-29T08:54:48;25.70;99.90
56298;DHT22;42208;6.376;-10.782;2023-07-29T08:57:18;25.60;99.90
56298;DHT22;42208;6.376;-10.782;2023-07-29T08:59:47;25.70;99.90
56298;DHT22;42208;6.376;-10.782;2023-07-29T09:02:16;25.60;99.90
56298;DHT22;42208;6.376;-10.782;2023-07-29T09:04:46;25.60;99.90
56298;DHT22;42208;6.376;-10.782;2023-07-29T09:07:15;25.60;99.90
56298;DHT22;42208;6.376;-10.782;2023-07-29T09:09:47;25.70;99.90
56298;DHT22;42208;6.376;-10.782;2023-07-29T09:12:16;25.70;99.90
56298;DHT22;42208;6.376;-10.782;2023-07-29T09:14:45;25.70;99.90
56298;DHT22;42208;6.376;-10.782;2023-07-29T09:17:14;25.80;99.90
56298;DHT22;42208;6.376;-10.782;2023-07-29T09:19:48;25.70;99.90
56298;DHT22;42208;6.376;-10.782;2023-07-29T09:22:19;25.80;99.90
56298;DHT22;42208;6.376;-10.782;2023-07-29T09:24:48;25.80;99.90
56298;DHT22;42208;6.376;-10.782;2023-07-29T09:27:27;25.90;99.90
56298;DHT22;42208;6.376;-10.782;2023-07-29T09:29:56;25.90;99.90
56298;DHT22;42208;6.376;-10.782;2023-07-29T09:32:25;25.90;99.90
56298;DHT22;42208;6.376;-10.782;2023-07-29T09:34:54;25.80;99.90
56298;DHT22;42208;6.376;-10.782;2023-07-29T09:37:23;25.70;99.90
56298;DHT22;42208;6.376;-10.782;2023-07-29T09:39:52;25.60;99.90
56298;DHT22;42208;6.376;-10.782;2023-07-29T09:42:22;25.60;99.90
56298;DHT22;42208;6.376;-10.782;2023-07-29T09:44:52;25.60;99.90
56298;DHT22;42208;6.376;-10.782;2023-07-29T09:47:22;25.60;99.90
56298;DHT22;42208;6.376;-10.782;2023-07-29T09:49:52;25.60;99.90
56298;DHT22;42208;6.376;-10.782;2023-07-29T09:52:22;25.50;99.90
56298;DHT22;42208;6.376;-10.782;2023-07-29T09:54:51;25.50;99.90
56298;DHT22;42208;6.376;-10.782;2023-07-29T09:57:24;25.50;99.90
56298;DHT22;42208;6.376;-10.782;2023-07-29T09:59:56;25.50;99.90
56298;DHT22;42208;6.376;-10.782;2023-07-29T10:02:27;25.50;99.90
56298;DHT22;42208;6.376;-10.782;2023-07-29T10:04:59;25.50;99.90
56298;DHT22;42208;6.376;-10.782;2023-07-29T10:07:28;25.60;99.90
56298;DHT22;42208;6.376;-10.782;2023-07-29T10:10:02;25.60;99.90
56298;DHT22;42208;6.376;-10.782;2023-07-29T10:12:33;25.60;99.90
56298;DHT22;42208;6.376;-10.782;2023-07-29T10:15:06;25.60;99.90
56298;DHT22;42208;6.376;-10.782;2023-07-29T10:17:37;25.60;99.90
56298;DHT22;42208;6.376;-10.782;2023-07-29T10:20:08;25.70;99.90
56298;DHT22;42208;6.376;-10.782;2023-07-29T10:25:18;25.80;99.90
56298;DHT22;42208;6.376;-10.782;2023-07-29T10:28:06;25.80;99.90
56298;DHT22;42208;6.376;-10.782;2023-07-29T10:30:35;25.90;99.90
56298;DHT22;42208;6.376;-10.782;2023-07-29T10:33:05;25.90;99.90
56298;DHT22;42208;6.376;-10.782;2023-07-29T10:35:38;26.00;99.90
56298;DHT22;42208;6.376;-10.782;2023-07-29T10:38:07;26.00;99.90
56298;DHT22;42208;6.376;-10.782;2023-07-29T10:41:06;26.10;99.90
56298;DHT22;42208;6.376;-10.782;2023-07-29T10:43:37;26.10;99.90
56298;DHT22;42208;6.376;-10.782;2023-07-29T10:46:22;26.20;99.90
56298;DHT22;42208;6.376;-10.782;2023-07-29T10:48:57;26.40;99.90
56298;DHT22;42208;6.376;-10.782;2023-07-29T10:54:12;26.50;99.90
56298;DHT22;42208;6.376;-10.782;2023-07-29T10:57:02;26.50;99.90
56298;DHT22;42208;6.376;-10.782;2023-07-29T10:59:33;26.60;99.90
56298;DHT22;42208;6.376;-10.782;2023-07-29T11:02:03;26.70;99.90
56298;DHT22;42208;6.376;-10.782;2023-07-29T11:05:06;26.70;99.90
56298;DHT22;42208;6.376;-10.782;2023-07-29T11:07:45;26.80;99.90
56298;DHT22;42208;6.376;-10.782;2023-07-29T11:10:14;26.80;99.90
56298;DHT22;42208;6.376;-10.782;2023-07-29T11:12:46;26.80;99.90
56298;DHT22;42208;6.376;-10.782;2023-07-29T11:15:28;26.90;99.90
56298;DHT22;42208;6.376;-10.782;2023-07-29T11:18:01;26.90;99.90
56298;DHT22;42208;6.376;-10.782;2023-07-29T11:20:33;26.90;99.90
56298;DHT22;42208;6.376;-10.782;2023-07-29T11:23:03;26.90;99.90
56298;DHT22;42208;6.376;-10.782;2023-07-29T11:25:32;26.90;99.90
56298;DHT22;42208;6.376;-10.782;2023-07-29T11:28:01;26.90;99.90
56298;DHT22;42208;6.376;-10.782;2023-07-29T11:30:33;27.00;99.90
56298;DHT22;42208;6.376;-10.782;2023-07-29T11:33:03;27.00;99.90
56298;DHT22;42208;6.376;-10.782;2023-07-29T11:35:32;27.10;99.90
56298;DHT22;42208;6.376;-10.782;2023-07-29T11:38:01;27.20;99.90
56298;DHT22;42208;6.376;-10.782;2023-07-29T11:40:31;27.20;99.90
56298;DHT22;42208;6.376;-10.782;2023-07-29T11:43:03;27.30;99.90
56298;DHT22;42208;6.376;-10.782;2023-07-29T11:45:34;27.30;99.90
56298;DHT22;42208;6.376;-10.782;2023-07-29T11:48:32;27.40;99.90
56298;DHT22;42208;6.376;-10.782;2023-07-29T11:51:01;27.40;99.90
56298;DHT22;42208;6.376;-10.782;2023-07-29T11:53:33;27.30;99.90
56298;DHT22;42208;6.376;-10.782;2023-07-29T11:56:03;27.30;99.90
56298;DHT22;42208;6.376;-10.782;2023-07-29T11:58:32;27.30;99.90
56298;DHT22;42208;6.376;-10.782;2023-07-29T12:01:01;27.30;99.90
56298;DHT22;42208;6.376;-10.782;2023-07-29T12:03:33;27.30;99.90
56298;DHT22;42208;6.376;-10.782;2023-07-29T12:06:02;27.40;99.90
56298;DHT22;42208;6.376;-10.782;2023-07-29T12:08:32;27.40;99.90
56298;DHT22;42208;6.376;-10.782;2023-07-29T12:11:01;27.50;99.90
56298;DHT22;42208;6.376;-10.782;2023-07-29T12:13:30;27.60;99.90
56298;DHT22;42208;6.376;-10.782;2023-07-29T12:16:04;27.70;99.90
56298;DHT22;42208;6.376;-10.782;2023-07-29T12:18:33;27.70;99.90
56298;DHT22;42208;6.376;-10.782;2023-07-29T12:21:03;27.70;99.90
56298;DHT22;42208;6.376;-10.782;2023-07-29T12:23:32;27.80;99.90
56298;DHT22;42208;6.376;-10.782;2023-07-29T12:26:02;27.90;99.90
56298;DHT22;42208;6.376;-10.782;2023-07-29T12:28:30;28.00;99.90
56298;DHT22;42208;6.376;-10.782;2023-07-29T12:31:00;28.00;99.90
56298;DHT22;42208;6.376;-10.782;2023-07-29T12:33:38;28.00;99.90
56298;DHT22;42208;6.376;-10.782;2023-07-29T12:36:08;28.10;99.90
56298;DHT22;42208;6.376;-10.782;2023-07-29T12:38:37;28.20;99.90
56298;DHT22;42208;6.376;-10.782;2023-07-29T12:41:07;28.30;99.90
56298;DHT22;42208;6.376;-10.782;2023-07-29T12:43:38;28.20;99.90
56298;DHT22;42208;6.376;-10.782;2023-07-29T12:46:07;28.30;99.90
56298;DHT22;42208;6.376;-10.782;2023-07-29T12:48:36;28.40;99.90
56298;DHT22;42208;6.376;-10.782;2023-07-29T12:51:06;28.40;99.90
56298;DHT22;42208;6.376;-10.782;2023-07-29T12:53:37;28.40;99.90
56298;DHT22;42208;6.376;-10.782;2023-07-29T12:56:07;28.50;99.90
56298;DHT22;42208;6.376;-10.782;2023-07-29T12:58:38;28.60;99.90
56298;DHT22;42208;6.376;-10.782;2023-07-29T13:01:07;28.60;99.90
56298;DHT22;42208;6.376;-10.782;2023-07-29T13:03:36;28.60;99.90
56298;DHT22;42208;6.376;-10.782;2023-07-29T13:06:04;28.70;99.90
56298;DHT22;42208;6.376;-10.782;2023-07-29T13:08:34;28.70;99.90
56298;DHT22;42208;6.376;-10.782;2023-07-29T13:11:04;28.70;99.90
56298;DHT22;42208;6.376;-10.782;2023-07-29T13:13:33;28.80;99.90
56298;DHT22;42208;6.376;-10.782;2023-07-29T13:16:02;28.80;99.90
56298;DHT22;42208;6.376;-10.782;2023-07-29T13:18:32;28.70;99.90
56298;DHT22;42208;6.376;-10.782;2023-07-29T13:21:01;28.70;99.90
56298;DHT22;42208;6.376;-10.782;2023-07-29T13:23:31;28.70;99.90
56298;DHT22;42208;6.376;-10.782;2023-07-29T13:26:03;28.70;99.90
56298;DHT22;42208;6.376;-10.782;2023-07-29T13:28:31;28.70;99.90
56298;DHT22;42208;6.376;-10.782;2023-07-29T13:31:03;28.70;99.90
56298;DHT22;42208;6.376;-10.782;2023-07-29T13:33:42;28.70;99.90
56298;DHT22;42208;6.376;-10.782;2023-07-29T13:36:12;28.70;99.90
56298;DHT22;42208;6.376;-10.782;2023-07-29T13:38:41;28.70;99.90
56298;DHT22;42208;6.376;-10.782;2023-07-29T13:41:12;28.70;99.90
56298;DHT22;42208;6.376;-10.782;2023-07-29T13:45:54;28.80;99.90
56298;DHT22;42208;6.376;-10.782;2023-07-29T13:48:23;28.90;99.90
56298;DHT22;42208;6.376;-10.782;2023-07-29T13:50:52;28.80;99.90
56298;DHT22;42208;6.376;-10.782;2023-07-29T13:53:21;28.80;99.90
56298;DHT22;42208;6.376;-10.782;2023-07-29T13:55:49;28.70;99.90
56298;DHT22;42208;6.376;-10.782;2023-07-29T13:58:18;28.60;99.90
56298;DHT22;42208;6.376;-10.782;2023-07-29T14:02:07;28.50;99.90
56298;DHT22;42208;6.376;-10.782;2023-07-29T14:04:37;28.40;99.90
56298;DHT22;42208;6.376;-10.782;2023-07-29T14:07:13;28.50;99.90
56298;DHT22;42208;6.376;-10.782;2023-07-29T14:09:44;28.60;99.90
56298;DHT22;42208;6.376;-10.782;2023-07-29T14:12:13;28.70;99.90
56298;DHT22;42208;6.376;-10.782;2023-07-29T14:14:42;28.70;99.90
56298;DHT22;42208;6.376;-10.782;2023-07-29T14:17:14;28.80;99.90
56298;DHT22;42208;6.376;-10.782;2023-07-29T14:19:43;28.80;99.90
56298;DHT22;42208;6.376;-10.782;2023-07-29T14:22:12;28.90;99.90
56298;DHT22;42208;6.376;-10.782;2023-07-29T14:24:41;28.80;99.90
56298;DHT22;42208;6.376;-10.782;2023-07-29T14:27:13;28.80;99.90
56298;DHT22;42208;6.376;-10.782;2023-07-29T14:29:42;28.70;99.90
56298;DHT22;42208;6.376;-10.782;2023-07-29T14:32:30;28.70;99.90
56298;DHT22;42208;6.376;-10.782;2023-07-29T14:34:59;28.70;99.90
56298;DHT22;42208;6.376;-10.782;2023-07-29T14:37:31;28.70;99.90
56298;DHT22;42208;6.376;-10.782;2023-07-29T14:40:09;28.80;99.90
56298;DHT22;42208;6.376;-10.782;2023-07-29T14:42:45;28.90;99.90
56298;DHT22;42208;6.376;-10.782;2023-07-29T14:45:14;28.90;99.90
56298;DHT22;42208;6.376;-10.782;2023-07-29T14:47:43;29.00;99.90
56298;DHT22;42208;6.376;-10.782;2023-07-29T14:50:12;29.20;99.90
56298;DHT22;42208;6.376;-10.782;2023-07-29T14:52:41;29.20;99.90
56298;DHT22;42208;6.376;-10.782;2023-07-29T14:55:10;29.30;99.90
56298;DHT22;42208;6.376;-10.782;2023-07-29T14:57:40;29.30;99.90
56298;DHT22;42208;6.376;-10.782;2023-07-29T15:00:10;29.30;99.90
56298;DHT22;42208;6.376;-10.782;2023-07-29T15:02:40;29.40;99.90
56298;DHT22;42208;6.376;-10.782;2023-07-29T15:05:11;29.40;99.90
56298;DHT22;42208;6.376;-10.782;2023-07-29T15:07:42;29.40;99.90
56298;DHT22;42208;6.376;-10.782;2023-07-29T15:10:15;29.30;99.90
56298;DHT22;42208;6.376;-10.782;2023-07-29T15:12:46;29.30;99.90
56298;DHT22;42208;6.376;-10.782;2023-07-29T15:15:22;29.40;99.90
56298;DHT22;42208;6.376;-10.782;2023-07-29T15:17:51;29.30;99.90
56298;DHT22;42208;6.376;-10.782;2023-07-29T15:20:20;29.30;99.90
56298;DHT22;42208;6.376;-10.782;2023-07-29T15:22:49;29.10;99.90
56298;DHT22;42208;6.376;-10.782;2023-07-29T15:25:23;29.10;99.90
56298;DHT22;42208;6.376;-10.782;2023-07-29T15:27:58;29.10;99.90
56298;DHT22;42208;6.376;-10.782;2023-07-29T15:30:29;29.10;99.90
56298;DHT22;42208;6.376;-10.782;2023-07-29T15:32:57;29.20;99.90
56298;DHT22;42208;6.376;-10.782;2023-07-29T15:35:26;29.10;99.90
56298;DHT22;42208;6.376;-10.782;2023-07-29T15:37:55;29.30;99.90
56298;DHT22;42208;6.376;-10.782;2023-07-29T15:40:23;29.40;99.90
56298;DHT22;42208;6.376;-10.782;2023-07-29T15:42:52;29.50;99.90
56298;DHT22;42208;6.376;-10.782;2023-07-29T15:45:21;29.50;99.90